Time;durP1;ratioP1;P1;durP2;ratioP2;P2;SDS_P1;SDS_P2;PMS_P1;PMS_P2;Temp;Humidity;BMP_temperature;BMP_pressure;BME280_temperature;BME280_humidity;BME280_pressure;Samples;Min_cycle;Max_cycle;Signal;HPM_P1;HPM_P2
2022/08/27 00:01:08;;;;;;;1999.90;999.90;;;12.70;99.90;;;;;;5056624;28;20050;-75
2022/08/27 00:03:35;;;;;;;1999.90;999.90;;;12.70;99.90;;;;;;5050697;28;20087;-75
2022/08/27 00:06:01;;;;;;;1999.90;999.90;;;12.70;99.90;;;;;;5062840;28;20044;-75
2022/08/27 00:08:26;;;;;;;1999.90;999.90;;;12.60;99.90;;;;;;5057844;28;20036;-75
2022/08/27 00:10:52;;;;;;;1999.90;999.90;;;12.60;99.90;;;;;;5058321;28;20032;-75
2022/08/27 00:13:18;;;;;;;1999.90;999.90;;;12.50;99.90;;;;;;5057800;28;20392;-75
2022/08/27 00:15:43;;;;;;;1999.90;999.90;;;12.50;99.90;;;;;;5051264;28;20036;-75
2022/08/27 00:18:09;;;;;;;1999.90;999.90;;;12.50;99.90;;;;;;5055807;28;20036;-75
2022/08/27 00:20:35;;;;;;;1999.90;999.90;;;12.50;99.90;;;;;;5042092;28;20365;-75
2022/08/27 00:23:00;;;;;;;1999.90;999.90;;;12.50;99.90;;;;;;5058982;28;20048;-75
2022/08/27 00:25:26;;;;;;;1999.90;999.90;;;12.50;99.90;;;;;;5045012;28;20510;-75
2022/08/27 00:27:52;;;;;;;1999.90;999.90;;;12.50;99.90;;;;;;5060201;28;20032;-75
2022/08/27 00:30:20;;;;;;;1999.90;999.90;;;12.50;99.90;;;;;;5041576;28;20121;-75
2022/08/27 00:32:46;;;;;;;1999.90;999.90;;;12.40;99.90;;;;;;5043209;28;20040;-75
2022/08/27 00:35:14;;;;;;;1999.90;999.90;;;12.30;99.90;;;;;;5044891;28;20147;-75
2022/08/27 00:37:41;;;;;;;1999.90;999.90;;;12.30;99.90;;;;;;5047687;28;20483;-75
2022/08/27 00:40:11;;;;;;;1999.90;999.90;;;12.20;99.90;;;;;;5060688;28;20585;-75
2022/08/27 00:42:37;;;;;;;1999.90;999.90;;;12.20;99.90;;;;;;5063209;28;21021;-75
2022/08/27 00:45:05;;;;;;;1999.90;999.90;;;12.10;99.90;;;;;;5058952;28;20036;-75
2022/08/27 00:47:35;;;;;;;1999.90;999.90;;;12.10;99.90;;;;;;5068375;28;20048;-74
2022/08/27 00:50:06;;;;;;;1999.90;999.90;;;12.10;99.90;;;;;;5062903;28;20043;-75
2022/08/27 00:52:36;;;;;;;1999.90;999.90;;;12.00;99.90;;;;;;5066000;28;20041;-75
2022/08/27 00:55:07;;;;;;;1999.90;999.90;;;12.00;99.90;;;;;;5051466;28;20096;-75
2022/08/27 00:57:37;;;;;;;1999.90;999.90;;;12.00;99.90;;;;;;5048672;28;20407;-75
2022/08/27 01:00:06;;;;;;;1999.90;999.90;;;12.00;99.90;;;;;;5066762;28;20040;-74
2022/08/27 01:02:32;;;;;;;1999.90;999.90;;;12.00;99.90;;;;;;5040703;28;20071;-75
2022/08/27 01:05:06;;;;;;;1999.90;999.90;;;11.90;99.90;;;;;;5057735;28;20048;-74
2022/08/27 01:07:36;;;;;;;1999.90;999.90;;;12.00;99.90;;;;;;5049417;28;20502;-74
2022/08/27 01:10:06;;;;;;;1999.90;999.90;;;11.90;99.90;;;;;;5066520;28;20048;-75
2022/08/27 01:12:32;;;;;;;1999.90;999.90;;;11.90;99.90;;;;;;5045228;28;20127;-75
2022/08/27 01:15:00;;;;;;;1999.90;999.90;;;11.80;99.90;;;;;;5081313;28;20036;-75
2022/08/27 01:17:26;;;;;;;1999.90;999.90;;;11.80;99.90;;;;;;5059695;28;20043;-75
2022/08/27 01:19:56;;;;;;;1999.90;999.90;;;11.80;99.90;;;;;;5051854;28;20131;-75
2022/08/27 01:22:52;;;;;;;1999.90;999.90;;;11.70;99.90;;;;;;5071811;28;20400;-75
2022/08/27 01:25:20;;;;;;;1999.90;999.90;;;11.70;99.90;;;;;;5045926;28;20138;-75
2022/08/27 01:27:47;;;;;;;1999.90;999.90;;;11.70;99.90;;;;;;5063129;28;20048;-75
2022/08/27 01:30:17;;;;;;;1999.90;999.90;;;11.70;99.90;;;;;;5061787;28;20056;-74
2022/08/27 01:32:44;;;;;;;1999.90;999.90;;;11.80;99.90;;;;;;5048230;28;20126;-74
2022/08/27 01:35:13;;;;;;;1999.90;999.90;;;11.80;99.90;;;;;;5039462;28;20524;-75
2022/08/27 01:37:40;;;;;;;1999.90;999.90;;;11.80;99.90;;;;;;5058670;28;20049;-75
2022/08/27 01:40:07;;;;;;;1999.90;999.90;;;11.90;99.90;;;;;;5046348;28;20032;-75
2022/08/27 01:42:45;;;;;;;1999.90;999.90;;;12.00;99.90;;;;;;5058839;28;20044;-75
2022/08/27 01:45:14;;;;;;;1999.90;999.90;;;12.10;99.90;;;;;;5043018;28;20044;-74
2022/08/27 01:47:40;;;;;;;1999.90;999.90;;;12.20;99.90;;;;;;5058116;28;20060;-75
2022/08/27 01:50:17;;;;;;;1999.90;999.90;;;12.40;99.90;;;;;;5047860;28;20126;-75
2022/08/27 01:52:43;;;;;;;1999.90;999.90;;;12.50;99.90;;;;;;5066918;28;20051;-75
2022/08/27 01:55:12;;;;;;;1999.90;999.90;;;12.50;99.90;;;;;;5067377;28;20078;-75
2022/08/27 01:57:38;;;;;;;1999.90;999.90;;;12.60;99.90;;;;;;5070026;28;20047;-75
2022/08/27 02:00:10;;;;;;;1999.90;999.90;;;12.60;99.90;;;;;;5054527;28;20043;-75
2022/08/27 02:02:36;;;;;;;1999.90;999.90;;;12.60;99.90;;;;;;5063129;28;20063;-74
2022/08/27 02:05:02;;;;;;;1999.90;999.90;;;12.60;99.90;;;;;;5056812;28;20578;-74
2022/08/27 02:07:28;;;;;;;1999.90;999.90;;;12.60;99.90;;;;;;5056582;28;20040;-75
2022/08/27 02:09:54;;;;;;;1999.90;999.90;;;12.70;99.90;;;;;;5042131;28;20028;-75
2022/08/27 02:12:19;;;;;;;1999.90;999.90;;;12.70;99.90;;;;;;5055838;28;20069;-75
2022/08/27 02:14:45;;;;;;;1999.90;999.90;;;12.80;99.90;;;;;;5047126;28;20124;-75
2022/08/27 02:17:11;;;;;;;1999.90;999.90;;;12.80;99.90;;;;;;5048111;28;20066;-75
2022/08/27 02:19:37;;;;;;;1999.90;999.90;;;12.80;99.90;;;;;;5048093;28;20036;-75
2022/08/27 02:22:03;;;;;;;1999.90;999.90;;;12.80;99.90;;;;;;5062427;28;20388;-75
2022/08/27 02:24:29;;;;;;;1999.90;999.90;;;12.80;99.90;;;;;;5060397;28;20044;-75
2022/08/27 02:26:55;;;;;;;1999.90;999.90;;;12.80;99.90;;;;;;5049117;28;20036;-75
2022/08/27 02:29:22;;;;;;;1999.90;999.90;;;12.70;99.90;;;;;;5070298;28;20043;-75
2022/08/27 02:31:49;;;;;;;1999.90;999.90;;;12.70;99.90;;;;;;5056135;28;20064;-75
2022/08/27 02:34:15;;;;;;;1999.90;999.90;;;12.70;99.90;;;;;;5050854;28;20044;-75
2022/08/27 02:36:41;;;;;;;1999.90;999.90;;;12.70;99.90;;;;;;5054915;28;20132;-75
2022/08/27 02:39:07;;;;;;;1999.90;999.90;;;12.70;99.90;;;;;;5059819;28;20058;-75
2022/08/27 02:41:33;;;;;;;1999.90;999.90;;;12.70;99.90;;;;;;5057192;28;20035;-74
2022/08/27 02:44:00;;;;;;;1999.90;999.90;;;12.70;99.90;;;;;;5039261;28;20044;-75
2022/08/27 02:46:25;;;;;;;1999.90;999.90;;;12.70;99.90;;;;;;5046921;28;20102;-75
2022/08/27 02:48:51;;;;;;;1999.90;999.90;;;12.60;99.90;;;;;;5046846;28;20044;-74
2022/08/27 02:51:16;;;;;;;1999.90;999.90;;;12.60;99.90;;;;;;5051861;28;20055;-75
2022/08/27 02:53:42;;;;;;;1999.90;999.90;;;12.60;99.90;;;;;;5047579;28;20043;-75
2022/08/27 02:56:09;;;;;;;1999.90;999.90;;;12.60;99.90;;;;;;5054925;28;20040;-75
2022/08/27 02:58:35;;;;;;;1999.90;999.90;;;12.60;99.90;;;;;;5042766;28;20040;-75
2022/08/27 03:01:01;;;;;;;1999.90;999.90;;;12.60;99.90;;;;;;5056115;28;20041;-74
2022/08/27 03:03:28;;;;;;;1999.90;999.90;;;12.50;99.90;;;;;;5049807;28;20040;-74
2022/08/27 03:05:56;;;;;;;1999.90;999.90;;;12.50;99.90;;;;;;5058492;28;20447;-75
2022/08/27 03:08:23;;;;;;;1999.90;999.90;;;12.40;99.90;;;;;;5074848;28;20036;-75
2022/08/27 03:10:50;;;;;;;1999.90;999.90;;;12.40;99.90;;;;;;5057433;28;20051;-75
2022/08/27 03:13:16;;;;;;;1999.90;999.90;;;12.30;99.90;;;;;;5044611;28;20039;-74
2022/08/27 03:15:42;;;;;;;1999.90;999.90;;;12.30;99.90;;;;;;5054794;28;20037;-74
2022/08/27 03:18:20;;;;;;;1999.90;999.90;;;12.30;99.90;;;;;;5076454;28;20073;-74
2022/08/27 03:20:52;;;;;;;1999.90;999.90;;;12.30;99.90;;;;;;5060944;28;20047;-75
2022/08/27 03:23:21;;;;;;;1999.90;999.90;;;12.20;99.90;;;;;;5043274;28;20041;-75
2022/08/27 03:25:50;;;;;;;1999.90;999.90;;;12.10;99.90;;;;;;5067661;28;20501;-74
2022/08/27 03:28:17;;;;;;;1999.90;999.90;;;12.10;99.90;;;;;;5078608;28;20047;-75
2022/08/27 03:30:47;;;;;;;1999.90;999.90;;;12.10;99.90;;;;;;5077136;28;20523;-74
2022/08/27 03:33:13;;;;;;;1999.90;999.90;;;12.00;99.90;;;;;;5046868;28;20084;-74
2022/08/27 03:35:39;;;;;;;1999.90;999.90;;;12.00;99.90;;;;;;5058506;28;20071;-74
2022/08/27 03:38:04;;;;;;;1999.90;999.90;;;11.90;99.90;;;;;;5071988;28;20093;-75
2022/08/27 03:40:30;;;;;;;1999.90;999.90;;;11.90;99.90;;;;;;5045841;28;20531;-75
2022/08/27 03:42:56;;;;;;;1999.90;999.90;;;11.90;99.90;;;;;;5049811;28;20484;-75
2022/08/27 03:45:21;;;;;;;1999.90;999.90;;;11.90;99.90;;;;;;5052963;28;20044;-75
2022/08/27 03:47:47;;;;;;;1999.90;999.90;;;11.90;99.90;;;;;;5055972;28;20091;-75
2022/08/27 03:50:12;;;;;;;1999.90;999.90;;;11.90;99.90;;;;;;5060946;28;20502;-75
2022/08/27 03:52:38;;;;;;;1999.90;999.90;;;11.90;99.90;;;;;;5055086;28;20094;-75
2022/08/27 03:55:07;;;;;;;1999.90;999.90;;;11.90;99.90;;;;;;5065942;28;20195;-75
2022/08/27 03:57:32;;;;;;;1999.90;999.90;;;11.80;99.90;;;;;;5058596;28;20040;-75
2022/08/27 03:59:59;;;;;;;1999.90;999.90;;;11.80;99.90;;;;;;5046203;28;20048;-75
2022/08/27 04:02:26;;;;;;;1999.90;999.90;;;11.70;99.90;;;;;;5067463;28;20051;-75
2022/08/27 04:04:51;;;;;;;1999.90;999.90;;;11.70;99.90;;;;;;5046600;28;20441;-75
2022/08/27 04:07:17;;;;;;;1999.90;999.90;;;11.70;99.90;;;;;;5073446;28;20487;-75
2022/08/27 04:09:43;;;;;;;1999.90;999.90;;;11.60;99.90;;;;;;5090904;28;20198;-75
2022/08/27 04:12:10;;;;;;;1999.90;999.90;;;11.60;99.90;;;;;;5070374;28;20055;-75
2022/08/27 04:14:36;;;;;;;1999.90;999.90;;;11.60;99.90;;;;;;5062745;28;20115;-75
2022/08/27 04:17:02;;;;;;;1999.90;999.90;;;11.50;99.90;;;;;;5056552;28;20139;-75
2022/08/27 04:19:31;;;;;;;1999.90;999.90;;;11.50;99.90;;;;;;5081024;28;20035;-75
2022/08/27 04:22:01;;;;;;;1999.90;999.90;;;11.40;99.90;;;;;;5057416;28;20036;-75
2022/08/27 04:24:29;;;;;;;1999.90;999.90;;;11.40;99.90;;;;;;5049771;28;20041;-75
2022/08/27 04:26:55;;;;;;;1999.90;999.90;;;11.40;99.90;;;;;;5069558;28;20047;-75
2022/08/27 04:29:20;;;;;;;1999.90;999.90;;;11.30;99.90;;;;;;5063342;28;20040;-75
2022/08/27 04:31:46;;;;;;;1999.90;999.90;;;11.30;99.90;;;;;;5054279;28;20063;-75
2022/08/27 04:34:12;;;;;;;1999.90;999.90;;;11.20;99.90;;;;;;5066850;28;20116;-75
2022/08/27 04:36:37;;;;;;;1999.90;999.90;;;11.20;99.90;;;;;;5040976;28;20098;-75
2022/08/27 04:39:03;;;;;;;1999.90;999.90;;;11.20;99.90;;;;;;5063531;28;20452;-75
2022/08/27 04:41:32;;;;;;;1999.90;999.90;;;11.20;99.90;;;;;;5055550;28;20035;-75
2022/08/27 04:44:02;;;;;;;1999.90;999.90;;;11.20;99.90;;;;;;5052128;28;20039;-75
2022/08/27 04:46:32;;;;;;;1999.90;999.90;;;11.20;99.90;;;;;;5043099;28;20139;-75
2022/08/27 04:49:00;;;;;;;1999.90;999.90;;;11.10;99.90;;;;;;5058980;28;20105;-75
2022/08/27 04:51:27;;;;;;;1999.90;999.90;;;11.20;99.90;;;;;;5058619;28;20047;-75
2022/08/27 04:53:53;;;;;;;1999.90;999.90;;;11.20;99.90;;;;;;5062155;28;20141;-75
2022/08/27 04:56:21;;;;;;;1999.90;999.90;;;11.20;99.90;;;;;;5065349;28;20131;-75
2022/08/27 04:58:48;;;;;;;1999.90;999.90;;;11.30;99.90;;;;;;5051559;28;20086;-75
2022/08/27 05:01:20;;;;;;;1999.90;999.90;;;11.30;99.90;;;;;;5064180;28;20039;-75
2022/08/27 05:03:45;;;;;;;1999.90;999.90;;;11.40;99.90;;;;;;5046603;28;20051;-75
2022/08/27 05:06:12;;;;;;;1999.90;999.90;;;11.40;99.90;;;;;;5045732;28;20044;-75
2022/08/27 05:08:38;;;;;;;1999.90;999.90;;;11.40;99.90;;;;;;5049414;28;20044;-75
2022/08/27 05:11:11;;;;;;;1999.90;999.90;;;11.50;99.90;;;;;;5060136;28;20480;-75
2022/08/27 05:13:37;;;;;;;;;;;11.60;99.90;;;;;;5066840;28;20039;-75
2022/08/27 05:16:06;;;;;;;1999.90;999.90;;;11.70;99.90;;;;;;5073525;28;20031;-75
2022/08/27 05:18:35;;;;;;;1999.90;999.90;;;11.80;99.90;;;;;;5071436;28;20068;-75
2022/08/27 05:21:02;;;;;;;1999.90;999.90;;;11.80;99.90;;;;;;5063541;28;20424;-75
2022/08/27 05:23:27;;;;;;;1999.90;999.90;;;11.90;99.90;;;;;;5067661;28;20071;-75
2022/08/27 05:25:54;;;;;;;1999.90;999.90;;;12.00;99.90;;;;;;5047775;28;20071;-75
2022/08/27 05:28:22;;;;;;;1999.90;999.90;;;12.10;99.90;;;;;;5071892;28;20530;-75
2022/08/27 05:30:50;;;;;;;1999.90;999.90;;;12.20;99.90;;;;;;5067488;28;20423;-75
2022/08/27 05:33:19;;;;;;;1999.90;999.90;;;12.30;99.90;;;;;;5054748;28;20079;-75
2022/08/27 05:35:49;;;;;;;1999.90;999.90;;;12.40;99.90;;;;;;5065571;28;20655;-75
2022/08/27 05:38:17;;;;;;;1999.90;999.90;;;12.60;99.90;;;;;;5071400;28;20071;-75
2022/08/27 05:40:43;;;;;;;1999.90;999.90;;;12.70;99.90;;;;;;5045461;28;20426;-75
2022/08/27 05:43:09;;;;;;;1999.90;999.90;;;12.80;99.90;;;;;;5064589;28;20047;-75
2022/08/27 05:45:46;;;;;;;1999.90;999.90;;;12.90;99.90;;;;;;5054237;28;20130;-75
2022/08/27 05:48:14;;;;;;;1999.90;999.90;;;13.00;99.90;;;;;;5038556;28;20055;-75
2022/08/27 05:50:42;;;;;;;1999.90;999.90;;;13.10;99.90;;;;;;5061699;28;20383;-75
2022/08/27 05:53:08;;;;;;;1999.90;999.90;;;13.30;99.90;;;;;;5070921;28;20048;-75
2022/08/27 05:55:38;;;;;;;1999.90;999.90;;;13.40;99.90;;;;;;5062308;28;20051;-76
2022/08/27 05:58:04;;;;;;;1999.90;999.90;;;13.50;99.90;;;;;;5057410;28;20063;-75
2022/08/27 06:03:14;;;;;;;1999.90;999.90;;;13.60;99.90;;;;;;5069515;28;20392;-75
2022/08/27 06:05:40;;;;;;;1999.90;999.90;;;13.60;99.90;;;;;;5066349;28;20040;-75
2022/08/27 06:08:06;;;;;;;1999.90;999.90;;;13.60;99.90;;;;;;5069678;28;20197;-75
2022/08/27 06:10:32;;;;;;;1999.90;999.90;;;13.60;99.90;;;;;;5067636;28;20104;-75
2022/08/27 06:12:58;;;;;;;1999.90;999.90;;;13.70;99.90;;;;;;5057993;28;20111;-75
2022/08/27 06:15:24;;;;;;;1999.90;999.90;;;13.80;99.90;;;;;;5061694;28;20096;-76
2022/08/27 06:17:49;;;;;;;1999.90;999.90;;;13.90;99.90;;;;;;5071146;28;20040;-76
2022/08/27 06:20:15;;;;;;;1999.90;999.90;;;14.00;99.90;;;;;;5038352;28;20040;-75
2022/08/27 06:22:44;;;;;;;1999.90;999.90;;;14.20;99.90;;;;;;5065813;28;20040;-76
2022/08/27 06:25:10;;;;;;;1999.90;999.90;;;14.30;99.90;;;;;;5052691;28;20044;-75
2022/08/27 06:27:35;;;;;;;1999.90;999.90;;;14.50;99.90;;;;;;5067040;28;20442;-75
2022/08/27 06:30:02;;;;;;;1999.90;999.90;;;14.70;99.90;;;;;;5066116;28;20048;-75
2022/08/27 06:32:28;;;;;;;1999.90;999.90;;;14.80;99.90;;;;;;5054323;28;20419;-75
2022/08/27 06:34:54;;;;;;;1999.90;999.90;;;14.90;99.90;;;;;;5042680;28;20396;-75
2022/08/27 06:37:20;;;;;;;1999.90;999.90;;;15.00;99.90;;;;;;5041545;28;20036;-76
2022/08/27 06:39:45;;;;;;;1999.90;999.90;;;15.20;99.90;;;;;;5057356;28;20483;-76
2022/08/27 06:42:12;;;;;;;1999.90;999.90;;;15.40;99.90;;;;;;5056688;28;20062;-76
2022/08/27 06:44:37;;;;;;;1999.90;999.90;;;15.60;99.90;;;;;;5058536;28;20044;-76
2022/08/27 06:47:03;;;;;;;1999.90;999.90;;;15.70;99.90;;;;;;5047069;28;20412;-76
2022/08/27 06:49:30;;;;;;;1999.90;999.90;;;15.90;99.90;;;;;;5063350;28;20119;-76
2022/08/27 06:51:55;;;;;;;1999.90;999.90;;;16.10;99.90;;;;;;5059702;28;20461;-75
2022/08/27 06:54:21;;;;;;;1999.90;999.90;;;16.30;99.90;;;;;;5062317;28;20407;-76
2022/08/27 06:56:48;;;;;;;1999.90;999.90;;;16.50;99.90;;;;;;5068785;28;20047;-76
2022/08/27 06:59:16;;;;;;;1999.90;999.90;;;16.70;99.90;;;;;;5057616;28;20506;-76
2022/08/27 07:01:45;;;;;;;1999.90;999.90;;;16.80;99.90;;;;;;5048300;28;20075;-76
2022/08/27 07:04:17;;;;;;;1999.90;999.90;;;17.00;99.90;;;;;;5060527;28;20047;-76
2022/08/27 07:06:43;;;;;;;1999.90;999.90;;;17.20;99.90;;;;;;5046973;28;20499;-76
2022/08/27 07:09:08;;;;;;;1999.90;999.90;;;17.40;99.90;;;;;;5058393;28;20047;-76
2022/08/27 07:11:35;;;;;;;1999.90;999.90;;;17.50;99.90;;;;;;5046964;28;20483;-76
2022/08/27 07:14:01;;;;;;;1999.90;999.90;;;17.70;99.90;;;;;;5046005;28;20134;-76
2022/08/27 07:16:28;;;;;;;1999.90;999.90;;;17.80;99.90;;;;;;5052281;28;20123;-76
2022/08/27 07:18:56;;;;;;;1999.90;999.90;;;17.90;99.90;;;;;;5059671;28;20069;-76
2022/08/27 07:21:23;;;;;;;1999.90;999.90;;;18.10;99.90;;;;;;5062580;28;20051;-76
2022/08/27 07:23:51;;;;;;;1999.90;999.90;;;18.20;99.90;;;;;;5059981;28;20127;-76
2022/08/27 07:26:18;;;;;;;1999.90;999.90;;;18.30;99.90;;;;;;5056908;28;20048;-76
2022/08/27 07:28:45;;;;;;;1999.90;999.90;;;18.40;99.90;;;;;;5064347;28;20092;-76
2022/08/27 07:31:15;;;;;;;1999.90;999.90;;;18.50;99.90;;;;;;5061398;28;20078;-76
2022/08/27 07:33:41;;;;;;;1999.90;999.90;;;18.50;99.90;;;;;;5056773;28;20063;-76
2022/08/27 07:36:07;;;;;;;1999.90;999.90;;;18.60;99.90;;;;;;5062644;28;20040;-76
2022/08/27 07:38:35;;;;;;;1999.90;999.90;;;18.70;99.90;;;;;;5047005;28;20429;-75
2022/08/27 07:41:05;;;;;;;1999.90;999.90;;;18.80;99.90;;;;;;5065237;28;20494;-76
2022/08/27 07:46:15;;;;;;;1999.90;999.90;;;19.00;99.90;;;;;;5060695;28;20547;-76
2022/08/27 07:48:41;;;;;;;1999.90;999.90;;;19.10;99.90;;;;;;5053087;28;20135;-75
2022/08/27 07:51:13;;;;;;;1999.90;999.90;;;19.10;99.90;;;;;;5061328;28;20098;-76
2022/08/27 07:53:41;;;;;;;1999.90;999.90;;;19.10;99.90;;;;;;5060818;28;20036;-76
2022/08/27 07:56:07;;;;;;;1999.90;999.90;;;19.20;99.90;;;;;;5063589;28;20090;-76
2022/08/27 07:58:34;;;;;;;1999.90;999.90;;;19.30;99.90;;;;;;5057432;28;20098;-76
2022/08/27 08:00:59;;;;;;;1999.90;999.90;;;19.40;99.90;;;;;;5055220;28;20123;-76
2022/08/27 08:03:26;;;;;;;1999.90;999.90;;;19.50;99.90;;;;;;5044625;28;20124;-76
2022/08/27 08:05:52;;;;;;;1999.90;999.90;;;19.60;99.90;;;;;;5041202;28;20483;-76
2022/08/27 08:08:19;;;;;;;1999.90;999.90;;;19.80;99.90;;;;;;5053896;28;20039;-76
2022/08/27 08:10:47;;;;;;;1999.90;999.90;;;19.90;99.90;;;;;;5044861;28;20041;-76
2022/08/27 08:13:13;;;;;;;1999.90;999.90;;;19.90;99.90;;;;;;5061835;28;20097;-76
2022/08/27 08:15:38;;;;;;;1999.90;999.90;;;19.90;99.90;;;;;;5047752;28;20483;-75
2022/08/27 08:18:04;;;;;;;1999.90;999.90;;;20.00;99.90;;;;;;5072993;28;20043;-76
2022/08/27 08:20:30;;;;;;;1999.90;999.90;;;20.00;99.90;;;;;;5047934;28;20083;-75
2022/08/27 08:22:56;;;;;;;1999.90;999.90;;;20.00;99.90;;;;;;5056506;28;20071;-76
2022/08/27 08:25:22;;;;;;;1999.90;999.90;;;20.00;99.90;;;;;;5054601;28;20044;-75
2022/08/27 08:27:47;;;;;;;1999.90;999.90;;;20.00;99.90;;;;;;5072161;28;20128;-76
2022/08/27 08:30:13;;;;;;;1999.90;999.90;;;20.10;99.90;;;;;;5054862;28;20076;-76
2022/08/27 08:32:42;;;;;;;1999.90;999.90;;;20.00;99.90;;;;;;5056625;28;20445;-76
2022/08/27 08:35:08;;;;;;;1999.90;999.90;;;20.00;99.90;;;;;;5059786;28;20252;-76
2022/08/27 08:37:35;;;;;;;1999.90;999.90;;;20.00;99.90;;;;;;5060893;28;20075;-76
2022/08/27 08:40:02;;;;;;;1999.90;999.90;;;20.10;99.90;;;;;;5072258;28;20036;-76
2022/08/27 08:42:53;;;;;;;1999.90;999.90;;;20.10;99.90;;;;;;5054471;28;20055;-76
2022/08/27 08:45:31;;;;;;;1999.90;999.90;;;20.10;99.90;;;;;;5054814;28;20101;-76
2022/08/27 08:48:11;;;;;;;1999.90;999.90;;;20.20;99.90;;;;;;5059709;28;20044;-76
2022/08/27 08:50:56;;;;;;;1999.90;999.90;;;20.20;99.90;;;;;;5055760;28;20040;-75
2022/08/27 08:53:40;;;;;;;1999.90;999.90;;;20.30;99.90;;;;;;5059421;28;20404;-76
2022/08/27 08:56:16;;;;;;;1999.90;999.90;;;20.30;99.90;;;;;;5070943;28;20135;-76
2022/08/27 08:58:51;;;;;;;1999.90;999.90;;;20.50;99.90;;;;;;5051680;28;20373;-75
2022/08/27 09:01:20;;;;;;;1999.90;999.90;;;20.50;99.90;;;;;;5070765;28;20044;-76
2022/08/27 09:03:53;;;;;;;1999.90;999.90;;;20.60;99.90;;;;;;5055752;28;20059;-76
2022/08/27 09:06:47;;;;;;;1999.90;999.90;;;20.50;99.90;;;;;;5069476;28;20147;-76
2022/08/27 09:09:22;;;;;;;1999.90;999.90;;;20.40;99.90;;;;;;5044263;28;20050;-76
2022/08/27 09:12:05;;;;;;;1999.90;999.90;;;20.30;99.90;;;;;;5058526;28;20043;-76
2022/08/27 09:14:51;;;;;;;1999.90;999.90;;;20.20;99.90;;;;;;5071647;28;20475;-76
2022/08/27 09:17:17;;;;;;;1999.90;999.90;;;20.20;99.90;;;;;;5054761;28;20039;-75
2022/08/27 09:19:43;;;;;;;1999.90;999.90;;;20.10;99.90;;;;;;5052874;28;20470;-76
2022/08/27 09:22:13;;;;;;;1999.90;999.90;;;20.10;99.90;;;;;;5060888;28;20438;-76
2022/08/27 09:25:09;;;;;;;1999.90;999.90;;;20.10;99.90;;;;;;5055352;28;20491;-76
2022/08/27 09:27:37;;;;;;;1999.90;999.90;;;20.10;99.90;;;;;;5045983;28;20166;-75
2022/08/27 09:30:15;;;;;;;1999.90;999.90;;;20.10;99.90;;;;;;5070768;28;20083;-76
2022/08/27 09:32:40;;;;;;;1999.90;999.90;;;20.10;99.90;;;;;;5071645;28;20054;-76
2022/08/27 09:35:10;;;;;;;1999.90;999.90;;;20.10;99.90;;;;;;5040783;28;20488;-76
2022/08/27 09:37:43;;;;;;;1999.90;999.90;;;20.20;99.90;;;;;;5071248;28;20056;-76
2022/08/27 09:40:45;;;;;;;1999.90;999.90;;;20.20;99.90;;;;;;5071687;28;20119;-75
2022/08/27 09:43:22;;;;;;;1999.90;999.90;;;20.40;99.90;;;;;;5033058;28;20048;-76
2022/08/27 09:45:58;;;;;;;1999.90;999.90;;;20.50;99.90;;;;;;5054113;28;20046;-76
2022/08/27 09:48:30;;;;;;;1999.90;999.90;;;20.60;99.90;;;;;;5054051;28;20047;-76
2022/08/27 09:50:59;;;;;;;1999.90;999.90;;;20.60;99.90;;;;;;5068771;28;20042;-76
2022/08/27 09:53:46;;;;;;;1999.90;999.90;;;20.60;99.90;;;;;;5054502;28;20043;-76
2022/08/27 09:56:25;;;;;;;1999.90;999.90;;;20.60;99.90;;;;;;5055035;28;20036;-76
2022/08/27 09:59:07;;;;;;;1999.90;999.90;;;20.60;99.90;;;;;;5051574;28;20032;-76
2022/08/27 10:01:37;;;;;;;1999.90;999.90;;;20.60;99.90;;;;;;5051178;28;20560;-76
2022/08/27 10:04:10;;;;;;;1999.90;999.90;;;21.10;99.90;;;;;;5071629;28;20138;-76
2022/08/27 10:06:37;;;;;;;1999.90;999.90;;;22.10;99.90;;;;;;5054268;28;20048;-76
2022/08/27 10:09:24;;;;;;;1999.90;999.90;;;23.00;99.90;;;;;;5064057;28;20408;-76
2022/08/27 10:12:13;;;;;;;1999.90;999.90;;;23.50;98.30;;;;;;5061092;28;20043;-76
2022/08/27 10:14:51;;;;;;;1999.90;999.90;;;23.80;97.80;;;;;;5056623;28;20413;-76
2022/08/27 10:17:22;;;;;;;1999.90;999.90;;;24.10;97.00;;;;;;5070203;28;20074;-76
2022/08/27 10:20:12;;;;;;;1999.90;999.90;;;24.10;97.00;;;;;;5054030;28;20102;-76
2022/08/27 10:22:59;;;;;;;1999.90;999.90;;;24.10;95.40;;;;;;5046691;28;20075;-76
2022/08/27 10:25:25;;;;;;;1999.90;999.90;;;24.20;95.60;;;;;;5061357;28;20066;-76
2022/08/27 10:27:57;;;;;;;1999.90;999.90;;;24.30;95.00;;;;;;5053995;28;20491;-76
2022/08/27 10:30:45;;;;;;;1999.90;999.90;;;24.30;93.60;;;;;;5061848;28;20056;-76
2022/08/27 10:33:17;;;;;;;1999.90;999.90;;;24.60;92.60;;;;;;5052407;28;20059;-76
2022/08/27 10:35:48;;;;;;;1999.90;999.90;;;24.80;93.40;;;;;;5040012;28;20042;-76
2022/08/27 10:38:36;;;;;;;1999.90;999.90;;;25.00;92.50;;;;;;5052218;28;20459;-76
2022/08/27 10:41:27;;;;;;;1999.90;999.90;;;24.70;90.50;;;;;;5057028;28;20028;-76
2022/08/27 10:44:18;;;;;;;1999.90;999.90;;;24.10;90.40;;;;;;5059999;28;20048;-76
2022/08/27 10:46:57;;;;;;;1999.90;999.90;;;23.50;90.70;;;;;;5069817;28;20523;-76
2022/08/27 10:49:37;;;;;;;1999.90;999.90;;;23.30;91.50;;;;;;5069328;28;20106;-76
2022/08/27 10:52:24;;;;;;;1999.90;999.90;;;23.40;91.80;;;;;;5062813;28;20040;-77
2022/08/27 10:55:09;;;;;;;1999.90;999.90;;;23.80;91.70;;;;;;5080401;28;20043;-76
2022/08/27 10:57:58;;;;;;;1999.90;999.90;;;24.20;90.60;;;;;;5051856;28;20446;-77
2022/08/27 11:00:33;;;;;;;1999.90;999.90;;;24.10;87.90;;;;;;5062019;28;20070;-76
2022/08/27 11:03:09;;;;;;;1999.90;999.90;;;23.60;90.50;;;;;;5051984;28;20075;-76
2022/08/27 11:05:47;;;;;;;1999.90;999.90;;;23.20;90.80;;;;;;5045995;28;20372;-76
2022/08/27 11:08:34;;;;;;;1999.90;999.90;;;22.90;91.30;;;;;;5046895;28;20028;-77
2022/08/27 11:11:06;;;;;;;1999.90;999.90;;;22.60;91.40;;;;;;5065187;28;20058;-76
2022/08/27 11:13:33;;;;;;;1999.90;999.90;;;22.40;92.10;;;;;;5070639;28;20130;-76
2022/08/27 11:16:01;;;;;;;1999.90;999.90;;;22.40;92.30;;;;;;5068874;28;20076;-76
2022/08/27 11:18:47;;;;;;;1999.90;999.90;;;22.50;93.00;;;;;;5071008;28;20032;-76
2022/08/27 11:21:39;;;;;;;1999.90;999.90;;;22.80;91.80;;;;;;5060139;28;20118;-76
2022/08/27 11:24:46;;;;;;;1999.90;999.90;;;23.20;92.10;;;;;;5059853;28;20059;-76
2022/08/27 11:27:18;;;;;;;1999.90;999.90;;;23.80;92.30;;;;;;5025482;28;20164;-76
2022/08/27 11:30:15;;;;;;;1999.90;999.90;;;24.10;90.30;;;;;;5005875;28;20054;-75
2022/08/27 11:33:03;;;;;;;1999.90;999.90;;;23.80;89.10;;;;;;4989219;28;20469;-75
2022/08/27 11:36:30;;;;;;;1999.90;999.90;;;23.50;90.20;;;;;;4988782;28;20932;-76
2022/08/27 11:39:20;;;;;;;1999.90;999.90;;;23.50;90.90;;;;;;4941651;28;20100;-76
2022/08/27 11:42:12;;;;;;;1999.90;999.90;;;23.40;90.50;;;;;;4986794;28;20057;-75
2022/08/27 11:44:43;;;;;;;1999.90;999.90;;;23.20;90.30;;;;;;4976271;28;20046;-76
2022/08/27 11:47:26;;;;;;;1999.90;999.90;;;23.10;90.70;;;;;;4996606;28;20533;-75
2022/08/27 11:49:55;;;;;;;1999.90;999.90;;;22.80;90.80;;;;;;4992488;28;20034;-75
2022/08/27 11:52:52;;;;;;;1999.90;999.90;;;22.90;91.60;;;;;;4976044;28;20090;-76
2022/08/27 11:55:21;;;;;;;1999.90;999.90;;;23.40;91.80;;;;;;4970984;28;20038;-75
2022/08/27 11:57:49;;;;;;;1999.90;999.90;;;23.80;91.50;;;;;;4988064;28;20387;-76
2022/08/27 12:00:17;;;;;;;1999.90;999.90;;;24.10;91.10;;;;;;4994710;28;20056;-76
2022/08/27 12:02:44;;;;;;;1999.90;999.90;;;23.90;90.70;;;;;;5064141;28;20044;-75
2022/08/27 12:05:21;;;;;;;1999.90;999.90;;;23.60;91.10;;;;;;5050174;28;20446;-75
2022/08/27 12:07:50;;;;;;;1999.90;999.90;;;23.40;91.10;;;;;;5048669;28;20048;-76
2022/08/27 12:10:26;;;;;;;1999.90;999.90;;;23.10;90.80;;;;;;5044966;28;20080;-76
2022/08/27 12:13:21;;;;;;;1999.90;999.90;;;23.10;91.00;;;;;;5047577;28;20044;-76
2022/08/27 12:16:11;;;;;;;1999.90;999.90;;;23.00;90.90;;;;;;5040664;28;20040;-75
2022/08/27 12:18:40;;;;;;;1999.90;999.90;;;22.80;91.10;;;;;;5041883;28;20097;-75
2022/08/27 12:21:13;;;;;;;1999.90;999.90;;;22.60;91.20;;;;;;5023237;28;20045;-76